Archival Weather

Republic

Farmingdale, New York (KFRG)

Report from: Tuesday, January 30, 2024 11:41 AM EST
Current time: Friday, June 21, 2024 4:37 AM EDT

Current weather – Weather history – Daily summaries
Weather forecast

Temperature2.2°C (36.0°F)
Wind chill-0.9°C (30.3°F)
Dew point-3.9°C (25.0°F)
Winds 6 kts (3.1 m/s, 6.9 mph) East-Southeast (120°)
Visibility10 mi. (16.1 km)
Clouds Ceiling: Overcast 3,000 ft. (914 m)
Altimeter30.22 in.Hg (1023 mB)
Relative humidity64 %
Density altitude-1,828 ft. (-557 m)
Remarks Automated weather observing station without precipitation discriminator
Flight conditions Visual Meteorological Conditions
Raw dataKFRG 301641Z 12006KT 10SM OVC030 02/M04 A3022 RMK AO1 T00221039
An error has occurred. This application may no longer respond until reloaded. Reload 🗙